sensor_id;sensor_type;location;lat;lon;timestamp;P1;durP1;ratioP1;P2;durP2;ratioP2
69026;SDS011;56080;47.594;19.116;2024-03-23T01:03:28;29.00;;;17.00;;
69026;SDS011;56080;47.594;19.116;2024-03-23T01:13:31;30.50;;;19.10;;
69026;SDS011;56080;47.594;19.116;2024-03-23T01:23:30;24.00;;;15.10;;
69026;SDS011;56080;47.594;19.116;2024-03-23T01:33:31;21.20;;;12.80;;
69026;SDS011;56080;47.594;19.116;2024-03-23T01:43:32;22.50;;;13.50;;
69026;SDS011;56080;47.594;19.116;2024-03-23T01:53:33;22.30;;;13.70;;
69026;SDS011;56080;47.594;19.116;2024-03-23T02:03:37;22.60;;;12.60;;
69026;SDS011;56080;47.594;19.116;2024-03-23T02:13:33;17.80;;;10.90;;
69026;SDS011;56080;47.594;19.116;2024-03-23T02:23:35;21.40;;;13.10;;
69026;SDS011;56080;47.594;19.116;2024-03-23T02:33:34;20.00;;;12.20;;
69026;SDS011;56080;47.594;19.116;2024-03-23T02:43:35;25.40;;;16.70;;
69026;SDS011;56080;47.594;19.116;2024-03-23T02:53:36;27.40;;;18.10;;
69026;SDS011;56080;47.594;19.116;2024-03-23T03:03:36;29.00;;;17.20;;
69026;SDS011;56080;47.594;19.116;2024-03-23T03:13:37;30.20;;;18.20;;
69026;SDS011;56080;47.594;19.116;2024-03-23T03:23:38;31.60;;;19.90;;
69026;SDS011;56080;47.594;19.116;2024-03-23T03:33:38;31.00;;;19.10;;
69026;SDS011;56080;47.594;19.116;2024-03-23T03:43:39;26.80;;;17.30;;
69026;SDS011;56080;47.594;19.116;2024-03-23T03:53:40;29.10;;;17.10;;
69026;SDS011;56080;47.594;19.116;2024-03-23T04:03:40;26.30;;;16.60;;
69026;SDS011;56080;47.594;19.116;2024-03-23T04:13:41;24.20;;;15.30;;
69026;SDS011;56080;47.594;19.116;2024-03-23T04:23:44;25.40;;;15.40;;
69026;SDS011;56080;47.594;19.116;2024-03-23T04:33:42;23.90;;;14.70;;
69026;SDS011;56080;47.594;19.116;2024-03-23T04:43:43;23.30;;;13.80;;
69026;SDS011;56080;47.594;19.116;2024-03-23T04:53:43;23.40;;;14.00;;
69026;SDS011;56080;47.594;19.116;2024-03-23T05:03:44;23.60;;;13.70;;
69026;SDS011;56080;47.594;19.116;2024-03-23T05:13:45;21.90;;;13.80;;
69026;SDS011;56080;47.594;19.116;2024-03-23T05:23:45;21.50;;;13.20;;
69026;SDS011;56080;47.594;19.116;2024-03-23T05:33:48;23.70;;;14.80;;
69026;SDS011;56080;47.594;19.116;2024-03-23T05:43:47;22.90;;;14.00;;
69026;SDS011;56080;47.594;19.116;2024-03-23T05:53:47;23.20;;;14.00;;
69026;SDS011;56080;47.594;19.116;2024-03-23T06:03:48;25.10;;;15.40;;
69026;SDS011;56080;47.594;19.116;2024-03-23T06:13:49;24.00;;;14.50;;
69026;SDS011;56080;47.594;19.116;2024-03-23T06:23:52;23.60;;;15.20;;
69026;SDS011;56080;47.594;19.116;2024-03-23T06:33:52;24.70;;;14.90;;
69026;SDS011;56080;47.594;19.116;2024-03-23T06:43:51;26.60;;;15.60;;
69026;SDS011;56080;47.594;19.116;2024-03-23T06:53:52;24.40;;;14.40;;
69026;SDS011;56080;47.594;19.116;2024-03-23T07:03:52;24.00;;;15.00;;
69026;SDS011;56080;47.594;19.116;2024-03-23T07:13:53;25.80;;;15.20;;
69026;SDS011;56080;47.594;19.116;2024-03-23T07:23:55;23.10;;;15.20;;
69026;SDS011;56080;47.594;19.116;2024-03-23T07:33:58;24.80;;;15.60;;
69026;SDS011;56080;47.594;19.116;2024-03-23T07:43:56;24.30;;;15.20;;
69026;SDS011;56080;47.594;19.116;2024-03-23T07:53:58;25.00;;;15.60;;
69026;SDS011;56080;47.594;19.116;2024-03-23T08:03:59;21.10;;;13.70;;
69026;SDS011;56080;47.594;19.116;2024-03-23T08:13:59;21.40;;;13.80;;
69026;SDS011;56080;47.594;19.116;2024-03-23T08:23:59;23.40;;;14.80;;
69026;SDS011;56080;47.594;19.116;2024-03-23T08:34:00;22.70;;;15.00;;
69026;SDS011;56080;47.594;19.116;2024-03-23T08:44:01;20.40;;;14.00;;
69026;SDS011;56080;47.594;19.116;2024-03-23T08:54:03;19.00;;;13.20;;
69026;SDS011;56080;47.594;19.116;2024-03-23T09:04:04;17.70;;;12.20;;
69026;SDS011;56080;47.594;19.116;2024-03-23T09:14:05;21.10;;;14.00;;
69026;SDS011;56080;47.594;19.116;2024-03-23T09:24:06;18.00;;;11.60;;
69026;SDS011;56080;47.594;19.116;2024-03-23T09:34:08;18.20;;;11.90;;
69026;SDS011;56080;47.594;19.116;2024-03-23T09:44:08;15.90;;;11.10;;
69026;SDS011;56080;47.594;19.116;2024-03-23T09:54:10;14.80;;;10.40;;
69026;SDS011;56080;47.594;19.116;2024-03-23T10:04:35;16.30;;;10.70;;
69026;SDS011;56080;47.594;19.116;2024-03-23T10:14:14;14.90;;;10.50;;
69026;SDS011;56080;47.594;19.116;2024-03-23T10:24:18;13.30;;;9.70;;
69026;SDS011;56080;47.594;19.116;2024-03-23T10:34:15;14.80;;;9.90;;
69026;SDS011;56080;47.594;19.116;2024-03-23T10:44:17;11.20;;;6.30;;
69026;SDS011;56080;47.594;19.116;2024-03-23T10:54:23;9.90;;;6.20;;
69026;SDS011;56080;47.594;19.116;2024-03-23T11:04:36;8.20;;;4.80;;
69026;SDS011;56080;47.594;19.116;2024-03-23T11:14:31;8.90;;;5.60;;
69026;SDS011;56080;47.594;19.116;2024-03-23T11:24:24;8.50;;;5.20;;
69026;SDS011;56080;47.594;19.116;2024-03-23T11:34:25;8.10;;;4.80;;
69026;SDS011;56080;47.594;19.116;2024-03-23T11:44:30;8.90;;;4.80;;
69026;SDS011;56080;47.594;19.116;2024-03-23T11:54:32;8.00;;;3.90;;
69026;SDS011;56080;47.594;19.116;2024-03-23T12:04:37;7.80;;;4.10;;
69026;SDS011;56080;47.594;19.116;2024-03-23T12:14:31;7.20;;;4.10;;
69026;SDS011;56080;47.594;19.116;2024-03-23T12:24:33;7.50;;;4.30;;
69026;SDS011;56080;47.594;19.116;2024-03-23T12:34:34;6.90;;;3.80;;
69026;SDS011;56080;47.594;19.116;2024-03-23T12:44:36;7.70;;;3.90;;
69026;SDS011;56080;47.594;19.116;2024-03-23T12:54:38;6.20;;;3.30;;
69026;SDS011;56080;47.594;19.116;2024-03-23T13:04:39;7.40;;;3.10;;
69026;SDS011;56080;47.594;19.116;2024-03-23T13:14:41;6.20;;;2.90;;
69026;SDS011;56080;47.594;19.116;2024-03-23T13:24:42;6.30;;;3.20;;
69026;SDS011;56080;47.594;19.116;2024-03-23T13:34:45;6.10;;;2.80;;
69026;SDS011;56080;47.594;19.116;2024-03-23T13:44:46;5.70;;;2.70;;
69026;SDS011;56080;47.594;19.116;2024-03-23T13:54:47;5.90;;;2.90;;
69026;SDS011;56080;47.594;19.116;2024-03-23T14:04:49;9.90;;;4.50;;
69026;SDS011;56080;47.594;19.116;2024-03-23T14:14:50;6.60;;;3.60;;
69026;SDS011;56080;47.594;19.116;2024-03-23T14:24:53;7.40;;;3.50;;
69026;SDS011;56080;47.594;19.116;2024-03-23T14:34:54;6.60;;;3.00;;
69026;SDS011;56080;47.594;19.116;2024-03-23T14:44:55;6.00;;;2.90;;
69026;SDS011;56080;47.594;19.116;2024-03-23T14:54:57;5.60;;;2.80;;
69026;SDS011;56080;47.594;19.116;2024-03-23T15:04:59;5.10;;;2.80;;
69026;SDS011;56080;47.594;19.116;2024-03-23T15:15:00;6.10;;;2.60;;
69026;SDS011;56080;47.594;19.116;2024-03-23T15:25:01;6.80;;;3.10;;
69026;SDS011;56080;47.594;19.116;2024-03-23T15:35:04;5.80;;;3.10;;
69026;SDS011;56080;47.594;19.116;2024-03-23T15:45:06;5.50;;;2.80;;
69026;SDS011;56080;47.594;19.116;2024-03-23T15:55:08;5.40;;;2.80;;
69026;SDS011;56080;47.594;19.116;2024-03-23T16:05:08;6.30;;;3.10;;
69026;SDS011;56080;47.594;19.116;2024-03-23T16:25:10;5.50;;;2.70;;
69026;SDS011;56080;47.594;19.116;2024-03-23T16:35:14;5.30;;;2.80;;
69026;SDS011;56080;47.594;19.116;2024-03-23T16:45:14;5.50;;;2.80;;
69026;SDS011;56080;47.594;19.116;2024-03-23T16:55:15;5.90;;;3.00;;
69026;SDS011;56080;47.594;19.116;2024-03-23T17:05:16;6.70;;;2.80;;
69026;SDS011;56080;47.594;19.116;2024-03-23T17:15:17;4.90;;;1.90;;
69026;SDS011;56080;47.594;19.116;2024-03-23T17:25:20;4.10;;;1.00;;
69026;SDS011;56080;47.594;19.116;2024-03-23T17:35:20;2.70;;;0.70;;
69026;SDS011;56080;47.594;19.116;2024-03-23T17:45:24;4.00;;;0.80;;
69026;SDS011;56080;47.594;19.116;2024-03-23T17:55:23;4.10;;;0.80;;
69026;SDS011;56080;47.594;19.116;2024-03-23T18:05:24;2.80;;;0.70;;
69026;SDS011;56080;47.594;19.116;2024-03-23T18:15:33;2.70;;;0.70;;
69026;SDS011;56080;47.594;19.116;2024-03-23T18:25:26;3.50;;;1.10;;
69026;SDS011;56080;47.594;19.116;2024-03-23T18:35:27;3.70;;;0.80;;
69026;SDS011;56080;47.594;19.116;2024-03-23T18:45:28;4.60;;;1.00;;
69026;SDS011;56080;47.594;19.116;2024-03-23T18:55:29;3.80;;;1.00;;
69026;SDS011;56080;47.594;19.116;2024-03-23T19:05:30;5.20;;;1.20;;
69026;SDS011;56080;47.594;19.116;2024-03-23T19:15:31;3.10;;;0.70;;
69026;SDS011;56080;47.594;19.116;2024-03-23T19:25:32;4.80;;;1.20;;
69026;SDS011;56080;47.594;19.116;2024-03-23T19:35:33;5.90;;;1.60;;
69026;SDS011;56080;47.594;19.116;2024-03-23T19:45:34;3.90;;;1.10;;
69026;SDS011;56080;47.594;19.116;2024-03-23T19:55:36;5.10;;;1.50;;
69026;SDS011;56080;47.594;19.116;2024-03-23T20:05:38;6.30;;;1.70;;
69026;SDS011;56080;47.594;19.116;2024-03-23T20:15:37;2.90;;;0.80;;
69026;SDS011;56080;47.594;19.116;2024-03-23T20:25:38;2.60;;;0.70;;
69026;SDS011;56080;47.594;19.116;2024-03-23T20:35:47;3.60;;;0.90;;
69026;SDS011;56080;47.594;19.116;2024-03-23T20:45:39;2.70;;;0.90;;
69026;SDS011;56080;47.594;19.116;2024-03-23T20:55:40;3.20;;;1.00;;
69026;SDS011;56080;47.594;19.116;2024-03-23T21:05:41;3.90;;;1.20;;
69026;SDS011;56080;47.594;19.116;2024-03-23T21:15:45;3.10;;;0.80;;
69026;SDS011;56080;47.594;19.116;2024-03-23T21:25:42;2.80;;;0.70;;
69026;SDS011;56080;47.594;19.116;2024-03-23T21:35:43;1.80;;;0.50;;
69026;SDS011;56080;47.594;19.116;2024-03-23T21:45:52;2.10;;;0.50;;
69026;SDS011;56080;47.594;19.116;2024-03-23T21:55:48;1.90;;;0.50;;
69026;SDS011;56080;47.594;19.116;2024-03-23T22:05:45;2.40;;;0.70;;
69026;SDS011;56080;47.594;19.116;2024-03-23T22:15:46;2.80;;;0.80;;
69026;SDS011;56080;47.594;19.116;2024-03-23T22:25:47;3.10;;;0.80;;
69026;SDS011;56080;47.594;19.116;2024-03-23T22:35:54;2.90;;;0.90;;
69026;SDS011;56080;47.594;19.116;2024-03-23T22:45:52;3.90;;;1.00;;
69026;SDS011;56080;47.594;19.116;2024-03-23T22:55:50;4.20;;;1.10;;
69026;SDS011;56080;47.594;19.116;2024-03-23T23:05:58;3.40;;;0.90;;
69026;SDS011;56080;47.594;19.116;2024-03-23T23:15:52;3.00;;;1.00;;
69026;SDS011;56080;47.594;19.116;2024-03-23T23:25:51;4.60;;;1.60;;
69026;SDS011;56080;47.594;19.116;2024-03-23T23:35:52;4.10;;;1.00;;
69026;SDS011;56080;47.594;19.116;2024-03-23T23:45:55;4.60;;;1.20;;
69026;SDS011;56080;47.594;19.116;2024-03-23T23:55:54;4.30;;;1.20;;
